SWR589X ESSA-LSZH
Flight info
| Callsign | SWR589X |
|---|---|
| Flight time | 2h 12m |
| Altitude | 34000 |
| Route | NOSLI N850 ABAMA/N0448F360 DCT MAKEL/N0445F370 DCT OTMON DCT SWALM DCT OMOGI T721 LAMGO/N0404F270 T721 SUL/N0384F230 T721 RILAX |
| Aircraft | A21N/M-SDE2E3FGIJ1LORVWXY/LB1 |
Departure
| Time | 2026-05-05 14:38 |
|---|---|
| Airport | Stockholm-Arlanda Airport (ESSA) |
Arrival
| Time | 2026-05-05 16:51 |
|---|---|
| Airport | Zürich Airport (LSZH) |
| Time | Latitude | Longitude | Altitude | Speed | Heading |
|---|---|---|---|---|---|
| 2026-05-05 14:16 | 59.65382 | 17.93136 | 117 ft | 0 kts | 221° |
| 2026-05-05 14:25 | 59.65393 | 17.93155 | 112 ft | 4 kts | 226° |
| 2026-05-05 14:25 | 59.65409 | 17.93197 | 114 ft | 4 kts | 247° |
| 2026-05-05 14:25 | 59.65412 | 17.93241 | 112 ft | 4 kts | 300° |
| 2026-05-05 14:25 | 59.65406 | 17.93255 | 112 ft | 0 kts | 341° |
| 2026-05-05 14:30 | 59.65418 | 17.93247 | 112 ft | 4 kts | 341° |
| 2026-05-05 14:30 | 59.65452 | 17.93220 | 115 ft | 6 kts | 334° |
| 2026-05-05 14:31 | 59.65492 | 17.93175 | 117 ft | 7 kts | 319° |
| 2026-05-05 14:31 | 59.65503 | 17.93072 | 115 ft | 9 kts | 258° |
| 2026-05-05 14:31 | 59.65484 | 17.92950 | 116 ft | 10 kts | 250° |
| 2026-05-05 14:31 | 59.65458 | 17.92811 | 115 ft | 11 kts | 247° |
| 2026-05-05 14:32 | 59.65418 | 17.92665 | 116 ft | 13 kts | 233° |
| 2026-05-05 14:32 | 59.65352 | 17.92526 | 116 ft | 16 kts | 217° |
| 2026-05-05 14:32 | 59.65253 | 17.92416 | 117 ft | 17 kts | 198° |
| 2026-05-05 14:32 | 59.65131 | 17.92359 | 117 ft | 19 kts | 190° |
| 2026-05-05 14:33 | 59.64999 | 17.92310 | 115 ft | 20 kts | 191° |
| 2026-05-05 14:33 | 59.64862 | 17.92259 | 117 ft | 20 kts | 191° |
| 2026-05-05 14:33 | 59.64720 | 17.92208 | 117 ft | 21 kts | 192° |
| 2026-05-05 14:33 | 59.64572 | 17.92157 | 116 ft | 22 kts | 190° |
| 2026-05-05 14:34 | 59.64471 | 17.92119 | 118 ft | 23 kts | 191° |
| 2026-05-05 14:34 | 59.64354 | 17.92072 | 119 ft | 13 kts | 207° |
| 2026-05-05 14:34 | 59.64320 | 17.91913 | 115 ft | 14 kts | 221° |
| 2026-05-05 14:34 | 59.64221 | 17.91863 | 119 ft | 17 kts | 191° |
| 2026-05-05 14:35 | 59.64093 | 17.91816 | 119 ft | 20 kts | 190° |
| 2026-05-05 14:35 | 59.63957 | 17.91767 | 115 ft | 20 kts | 190° |
| 2026-05-05 14:35 | 59.63825 | 17.91682 | 112 ft | 20 kts | 222° |
| 2026-05-05 14:35 | 59.63732 | 17.91521 | 112 ft | 15 kts | 229° |
| 2026-05-05 14:36 | 59.63763 | 17.91350 | 115 ft | 15 kts | 344° |
| 2026-05-05 14:36 | 59.63819 | 17.91358 | 115 ft | 0 kts | 10° |
| 2026-05-05 14:37 | 59.63827 | 17.91361 | 115 ft | 11 kts | 10° |
| 2026-05-05 14:37 | 59.64154 | 17.91478 | 112 ft | 83 kts | 9° |
| 2026-05-05 14:38 | 59.64940 | 17.91761 | 110 ft | 145 kts | 9° |
| 2026-05-05 14:38 | 59.66071 | 17.92182 | 381 ft | 173 kts | 5° |
| 2026-05-05 14:38 | 59.67272 | 17.92625 | 1100 ft | 178 kts | 6° |
| 2026-05-05 14:38 | 59.68515 | 17.92850 | 1668 ft | 184 kts | 345° |
| 2026-05-05 14:39 | 59.69616 | 17.91550 | 2141 ft | 191 kts | 311° |
| 2026-05-05 14:39 | 59.70262 | 17.89194 | 2667 ft | 202 kts | 283° |
| 2026-05-05 14:39 | 59.70271 | 17.86379 | 3336 ft | 207 kts | 258° |
| 2026-05-05 14:39 | 59.69821 | 17.83662 | 4110 ft | 208 kts | 252° |
| 2026-05-05 14:40 | 59.69326 | 17.80968 | 4881 ft | 209 kts | 253° |
| 2026-05-05 14:40 | 59.68855 | 17.78229 | 5604 ft | 212 kts | 253° |
| 2026-05-05 14:40 | 59.68386 | 17.75380 | 6084 ft | 228 kts | 254° |
| 2026-05-05 14:40 | 59.67883 | 17.72254 | 6427 ft | 248 kts | 254° |
| 2026-05-05 14:41 | 59.67342 | 17.68952 | 7009 ft | 256 kts | 251° |
| 2026-05-05 14:41 | 59.66450 | 17.65885 | 7716 ft | 263 kts | 229° |
| 2026-05-05 14:41 | 59.64936 | 17.63823 | 8460 ft | 270 kts | 205° |
| 2026-05-05 14:41 | 59.63136 | 17.62677 | 9231 ft | 273 kts | 199° |
| 2026-05-05 14:42 | 59.61297 | 17.61656 | 9940 ft | 277 kts | 199° |
| 2026-05-05 14:42 | 59.59390 | 17.60564 | 10274 ft | 294 kts | 200° |
| 2026-05-05 14:42 | 59.57368 | 17.59365 | 10527 ft | 313 kts | 200° |
| 2026-05-05 14:42 | 59.55225 | 17.58072 | 10763 ft | 332 kts | 201° |
| 2026-05-05 14:43 | 59.53055 | 17.56467 | 10995 ft | 346 kts | 212° |
| 2026-05-05 14:43 | 59.50969 | 17.53775 | 11269 ft | 360 kts | 219° |
| 2026-05-05 14:43 | 59.48899 | 17.50859 | 11713 ft | 369 kts | 219° |
| 2026-05-05 14:43 | 59.46801 | 17.47933 | 12338 ft | 371 kts | 219° |
| 2026-05-05 14:44 | 59.44684 | 17.45018 | 13000 ft | 372 kts | 220° |
| 2026-05-05 14:44 | 59.42524 | 17.42075 | 13676 ft | 373 kts | 220° |
| 2026-05-05 14:44 | 59.40386 | 17.39183 | 14243 ft | 374 kts | 220° |
| 2026-05-05 14:44 | 59.38239 | 17.36297 | 14868 ft | 374 kts | 220° |
| 2026-05-05 14:45 | 59.36098 | 17.33410 | 15532 ft | 374 kts | 220° |
| 2026-05-05 14:45 | 59.33956 | 17.30516 | 16288 ft | 374 kts | 220° |
| 2026-05-05 14:45 | 59.31821 | 17.27637 | 17048 ft | 374 kts | 221° |
| 2026-05-05 14:45 | 59.29672 | 17.24745 | 17650 ft | 376 kts | 221° |
| 2026-05-05 14:46 | 59.27504 | 17.21835 | 18241 ft | 379 kts | 221° |
| 2026-05-05 14:46 | 59.25320 | 17.18916 | 18742 ft | 382 kts | 221° |
| 2026-05-05 14:46 | 59.23117 | 17.15991 | 19232 ft | 384 kts | 220° |
| 2026-05-05 14:46 | 59.20898 | 17.13045 | 19701 ft | 387 kts | 220° |
| 2026-05-05 14:47 | 59.18665 | 17.10079 | 20175 ft | 389 kts | 220° |
| 2026-05-05 14:47 | 59.16422 | 17.07101 | 20622 ft | 391 kts | 220° |
| 2026-05-05 14:47 | 59.14163 | 17.04107 | 21033 ft | 394 kts | 220° |
| 2026-05-05 14:47 | 59.11893 | 17.01100 | 21440 ft | 396 kts | 220° |
| 2026-05-05 14:48 | 59.09607 | 16.98074 | 21821 ft | 398 kts | 220° |
| 2026-05-05 14:48 | 59.07307 | 16.95033 | 22189 ft | 401 kts | 220° |
| 2026-05-05 14:48 | 59.04998 | 16.91978 | 22468 ft | 404 kts | 220° |
| 2026-05-05 14:48 | 59.02664 | 16.88900 | 22808 ft | 407 kts | 220° |
| 2026-05-05 14:49 | 59.00319 | 16.85815 | 23167 ft | 409 kts | 220° |
| 2026-05-05 14:49 | 58.97958 | 16.82714 | 23538 ft | 411 kts | 219° |
| 2026-05-05 14:49 | 58.95589 | 16.79611 | 23943 ft | 410 kts | 220° |
| 2026-05-05 14:49 | 58.93228 | 16.76527 | 24390 ft | 409 kts | 220° |
| 2026-05-05 14:50 | 58.90877 | 16.73459 | 24835 ft | 407 kts | 220° |
| 2026-05-05 14:50 | 58.88501 | 16.70360 | 25267 ft | 406 kts | 220° |
| 2026-05-05 14:50 | 58.86164 | 16.67318 | 25698 ft | 405 kts | 220° |
| 2026-05-05 14:50 | 58.83858 | 16.64321 | 26168 ft | 403 kts | 220° |
| 2026-05-05 14:51 | 58.81503 | 16.61269 | 26578 ft | 402 kts | 220° |
| 2026-05-05 14:51 | 58.79174 | 16.58253 | 26839 ft | 404 kts | 220° |
| 2026-05-05 14:51 | 58.76842 | 16.55240 | 27203 ft | 404 kts | 220° |
| 2026-05-05 14:51 | 58.74506 | 16.52227 | 27641 ft | 403 kts | 220° |
| 2026-05-05 14:52 | 58.72181 | 16.49232 | 28055 ft | 402 kts | 220° |
| 2026-05-05 14:52 | 58.69863 | 16.46254 | 28475 ft | 400 kts | 220° |
| 2026-05-05 14:52 | 58.67552 | 16.43293 | 28898 ft | 399 kts | 220° |
| 2026-05-05 14:52 | 58.65244 | 16.40335 | 29286 ft | 398 kts | 220° |
| 2026-05-05 14:53 | 58.62941 | 16.37389 | 29678 ft | 397 kts | 220° |
| 2026-05-05 14:53 | 58.60639 | 16.34448 | 30029 ft | 397 kts | 220° |
| 2026-05-05 14:53 | 58.58348 | 16.31525 | 30318 ft | 396 kts | 220° |
| 2026-05-05 14:53 | 58.56054 | 16.28602 | 30563 ft | 396 kts | 220° |
| 2026-05-05 14:54 | 58.53755 | 16.25678 | 30768 ft | 397 kts | 220° |
| 2026-05-05 14:54 | 58.51449 | 16.22753 | 31016 ft | 397 kts | 220° |
| 2026-05-05 14:54 | 58.49145 | 16.19836 | 31297 ft | 397 kts | 220° |
| 2026-05-05 14:54 | 58.46849 | 16.16927 | 31566 ft | 396 kts | 220° |
| 2026-05-05 14:55 | 58.44547 | 16.14020 | 31836 ft | 396 kts | 220° |
| 2026-05-05 14:55 | 58.42254 | 16.11129 | 32088 ft | 395 kts | 220° |
| 2026-05-05 14:55 | 58.39961 | 16.08240 | 32332 ft | 395 kts | 220° |
| 2026-05-05 14:55 | 58.37670 | 16.05358 | 32572 ft | 395 kts | 220° |
| 2026-05-05 14:56 | 58.35378 | 16.02481 | 32801 ft | 394 kts | 220° |
| 2026-05-05 14:56 | 58.33089 | 15.99613 | 33035 ft | 394 kts | 220° |
| 2026-05-05 14:56 | 58.30800 | 15.96746 | 33171 ft | 394 kts | 219° |
| 2026-05-05 14:56 | 58.28505 | 15.93876 | 33299 ft | 396 kts | 219° |
| 2026-05-05 14:57 | 58.26198 | 15.90998 | 33492 ft | 397 kts | 219° |
| 2026-05-05 14:57 | 58.23891 | 15.88126 | 33726 ft | 396 kts | 219° |
| 2026-05-05 14:57 | 58.21559 | 15.85227 | 33905 ft | 397 kts | 219° |
| 2026-05-05 14:57 | 58.19275 | 15.82390 | 33913 ft | 398 kts | 219° |
| 2026-05-05 14:58 | 58.14608 | 15.76609 | 33887 ft | 398 kts | 219° |
| 2026-05-05 14:58 | 58.09972 | 15.70883 | 33876 ft | 398 kts | 219° |
| 2026-05-05 14:59 | 58.05333 | 15.65172 | 33824 ft | 400 kts | 219° |
| 2026-05-05 14:59 | 58.00655 | 15.59433 | 33881 ft | 401 kts | 219° |
| 2026-05-05 15:00 | 57.96759 | 15.54687 | 33880 ft | 402 kts | 218° |
| 2026-05-05 15:00 | 57.91223 | 15.48156 | 33882 ft | 402 kts | 218° |
| 2026-05-05 15:01 | 57.86492 | 15.42572 | 33877 ft | 402 kts | 218° |
| 2026-05-05 15:01 | 57.81755 | 15.36996 | 33877 ft | 402 kts | 218° |
| 2026-05-05 15:02 | 57.77014 | 15.31433 | 33891 ft | 401 kts | 218° |
| 2026-05-05 15:02 | 57.72280 | 15.25891 | 33875 ft | 401 kts | 218° |
| 2026-05-05 15:03 | 57.67544 | 15.20362 | 33875 ft | 401 kts | 218° |
| 2026-05-05 15:03 | 57.62773 | 15.14815 | 33877 ft | 401 kts | 218° |
| 2026-05-05 15:04 | 57.58036 | 15.09320 | 33861 ft | 401 kts | 218° |
| 2026-05-05 15:04 | 57.53275 | 15.03817 | 33870 ft | 403 kts | 217° |
| 2026-05-05 15:05 | 57.46123 | 14.95579 | 33874 ft | 404 kts | 217° |
| 2026-05-05 15:06 | 57.41345 | 14.90099 | 33875 ft | 404 kts | 217° |
| 2026-05-05 15:06 | 57.37373 | 14.85555 | 33874 ft | 404 kts | 217° |
| 2026-05-05 15:07 | 57.32590 | 14.80105 | 33828 ft | 404 kts | 217° |
| 2026-05-05 15:07 | 57.27740 | 14.74593 | 33876 ft | 408 kts | 217° |
| 2026-05-05 15:08 | 57.22904 | 14.69115 | 33878 ft | 408 kts | 217° |
| 2026-05-05 15:08 | 57.18060 | 14.63635 | 33878 ft | 408 kts | 217° |
| 2026-05-05 15:09 | 57.13210 | 14.58174 | 33876 ft | 408 kts | 217° |
| 2026-05-05 15:09 | 57.08357 | 14.52729 | 33880 ft | 408 kts | 217° |
| 2026-05-05 15:10 | 57.03483 | 14.47267 | 33880 ft | 411 kts | 216° |
| 2026-05-05 15:10 | 56.98594 | 14.41809 | 33881 ft | 411 kts | 216° |
| 2026-05-05 15:11 | 56.93707 | 14.36370 | 33876 ft | 411 kts | 216° |
| 2026-05-05 15:11 | 56.88812 | 14.30945 | 33878 ft | 411 kts | 216° |
| 2026-05-05 15:12 | 56.83910 | 14.25530 | 33883 ft | 412 kts | 216° |
| 2026-05-05 15:12 | 56.78985 | 14.20101 | 33882 ft | 415 kts | 216° |
| 2026-05-05 15:13 | 56.74042 | 14.14670 | 33882 ft | 415 kts | 216° |
| 2026-05-05 15:13 | 56.69091 | 14.09248 | 33908 ft | 415 kts | 216° |
| 2026-05-05 15:14 | 56.64150 | 14.03855 | 33893 ft | 414 kts | 216° |
| 2026-05-05 15:14 | 56.59212 | 13.98478 | 33861 ft | 414 kts | 216° |
| 2026-05-05 15:15 | 56.54252 | 13.93094 | 33898 ft | 416 kts | 216° |
| 2026-05-05 15:15 | 56.49310 | 13.87748 | 33896 ft | 417 kts | 215° |
| 2026-05-05 15:16 | 56.44294 | 13.82342 | 33897 ft | 417 kts | 215° |
| 2026-05-05 15:16 | 56.39308 | 13.76984 | 33902 ft | 417 kts | 215° |
| 2026-05-05 15:17 | 56.34290 | 13.71609 | 33868 ft | 417 kts | 215° |
| 2026-05-05 15:17 | 56.29288 | 13.66261 | 33898 ft | 419 kts | 215° |
| 2026-05-05 15:18 | 56.24267 | 13.60917 | 33919 ft | 419 kts | 215° |
| 2026-05-05 15:18 | 56.19250 | 13.55591 | 33926 ft | 419 kts | 215° |
| 2026-05-05 15:19 | 56.14229 | 13.50274 | 33927 ft | 419 kts | 215° |
| 2026-05-05 15:19 | 56.09203 | 13.44967 | 33904 ft | 420 kts | 214° |
| 2026-05-05 15:20 | 56.04153 | 13.39656 | 33935 ft | 421 kts | 214° |
| 2026-05-05 15:20 | 55.99093 | 13.34363 | 33932 ft | 421 kts | 214° |
| 2026-05-05 15:21 | 55.94038 | 13.29069 | 33927 ft | 421 kts | 214° |
| 2026-05-05 15:21 | 55.88982 | 13.23787 | 33929 ft | 421 kts | 214° |
| 2026-05-05 15:22 | 55.83906 | 13.18512 | 33906 ft | 424 kts | 213° |
| 2026-05-05 15:22 | 55.78799 | 13.13224 | 33926 ft | 425 kts | 213° |
| 2026-05-05 15:23 | 55.73686 | 13.07939 | 33927 ft | 425 kts | 213° |
| 2026-05-05 15:23 | 55.68568 | 13.02666 | 33925 ft | 425 kts | 213° |
| 2026-05-05 15:24 | 55.63450 | 12.97412 | 33929 ft | 425 kts | 213° |
| 2026-05-05 15:24 | 55.58318 | 12.92161 | 33925 ft | 427 kts | 213° |
| 2026-05-05 15:25 | 55.53172 | 12.86909 | 33925 ft | 427 kts | 213° |
| 2026-05-05 15:25 | 55.48027 | 12.81677 | 33920 ft | 427 kts | 213° |
| 2026-05-05 15:26 | 55.42847 | 12.76424 | 33917 ft | 427 kts | 213° |
| 2026-05-05 15:26 | 55.37731 | 12.71250 | 33921 ft | 427 kts | 213° |
| 2026-05-05 15:27 | 55.32551 | 12.66027 | 33916 ft | 427 kts | 213° |
| 2026-05-05 15:27 | 55.27395 | 12.60846 | 33918 ft | 427 kts | 213° |
| 2026-05-05 15:28 | 55.22241 | 12.55683 | 33921 ft | 427 kts | 213° |
| 2026-05-05 15:28 | 55.17087 | 12.50532 | 33921 ft | 427 kts | 212° |
| 2026-05-05 15:29 | 55.11928 | 12.45395 | 33909 ft | 428 kts | 212° |
| 2026-05-05 15:29 | 55.06753 | 12.40257 | 33921 ft | 428 kts | 212° |
| 2026-05-05 15:30 | 55.01573 | 12.35129 | 33921 ft | 428 kts | 212° |
| 2026-05-05 15:30 | 54.96396 | 12.30020 | 33922 ft | 428 kts | 212° |
| 2026-05-05 15:31 | 54.91209 | 12.24914 | 33918 ft | 428 kts | 212° |
| 2026-05-05 15:31 | 54.86058 | 12.19862 | 33912 ft | 422 kts | 212° |
| 2026-05-05 15:32 | 54.80942 | 12.14855 | 33918 ft | 423 kts | 212° |
| 2026-05-05 15:32 | 54.75818 | 12.09856 | 33917 ft | 423 kts | 212° |
| 2026-05-05 15:33 | 54.70692 | 12.04875 | 33920 ft | 423 kts | 212° |
| 2026-05-05 15:33 | 54.65570 | 11.99907 | 33906 ft | 421 kts | 213° |
| 2026-05-05 15:34 | 54.60498 | 11.95001 | 33915 ft | 417 kts | 213° |
| 2026-05-05 15:34 | 54.55435 | 11.90121 | 33914 ft | 417 kts | 213° |
| 2026-05-05 15:35 | 54.50330 | 11.85214 | 33922 ft | 419 kts | 213° |
| 2026-05-05 15:35 | 54.45236 | 11.80343 | 33920 ft | 419 kts | 212° |
| 2026-05-05 15:36 | 54.40019 | 11.75881 | 33905 ft | 415 kts | 211° |
| 2026-05-05 15:36 | 54.34834 | 11.71535 | 33915 ft | 415 kts | 211° |
| 2026-05-05 15:37 | 54.29646 | 11.67187 | 33918 ft | 415 kts | 211° |
| 2026-05-05 15:37 | 54.24458 | 11.62852 | 33914 ft | 415 kts | 211° |
| 2026-05-05 15:38 | 54.19271 | 11.58530 | 33888 ft | 415 kts | 211° |
| 2026-05-05 15:38 | 54.14116 | 11.54251 | 33908 ft | 411 kts | 211° |
| 2026-05-05 15:39 | 54.08977 | 11.49987 | 33909 ft | 411 kts | 211° |
| 2026-05-05 15:39 | 54.04703 | 11.46449 | 33909 ft | 411 kts | 211° |
| 2026-05-05 15:40 | 53.99562 | 11.42199 | 33902 ft | 411 kts | 211° |
| 2026-05-05 15:40 | 53.94418 | 11.37968 | 33887 ft | 409 kts | 211° |
| 2026-05-05 15:41 | 53.89315 | 11.33785 | 33896 ft | 407 kts | 211° |
| 2026-05-05 15:41 | 53.84210 | 11.29606 | 33902 ft | 407 kts | 211° |
| 2026-05-05 15:42 | 53.79103 | 11.25441 | 33899 ft | 408 kts | 211° |
| 2026-05-05 15:42 | 53.73989 | 11.21281 | 33901 ft | 408 kts | 211° |
| 2026-05-05 15:43 | 53.68876 | 11.17133 | 33899 ft | 408 kts | 211° |
| 2026-05-05 15:43 | 53.63729 | 11.12968 | 33902 ft | 407 kts | 211° |
| 2026-05-05 15:44 | 53.58618 | 11.08844 | 33895 ft | 407 kts | 211° |
| 2026-05-05 15:44 | 53.53506 | 11.04728 | 33897 ft | 407 kts | 211° |
| 2026-05-05 15:45 | 53.48391 | 11.00624 | 33868 ft | 407 kts | 210° |
| 2026-05-05 15:45 | 53.43274 | 10.96532 | 33894 ft | 408 kts | 210° |
| 2026-05-05 15:46 | 53.38154 | 10.92447 | 33895 ft | 408 kts | 210° |
| 2026-05-05 15:46 | 53.33031 | 10.88370 | 33892 ft | 408 kts | 210° |
| 2026-05-05 15:47 | 53.27912 | 10.84303 | 33896 ft | 408 kts | 210° |
| 2026-05-05 15:47 | 53.22789 | 10.80243 | 33877 ft | 406 kts | 209° |
| 2026-05-05 15:48 | 53.17687 | 10.76216 | 33899 ft | 406 kts | 209° |
| 2026-05-05 15:48 | 53.12582 | 10.72190 | 33889 ft | 406 kts | 209° |
| 2026-05-05 15:49 | 53.07477 | 10.68168 | 33891 ft | 406 kts | 209° |
| 2026-05-05 15:49 | 53.02366 | 10.64161 | 33887 ft | 406 kts | 208° |
| 2026-05-05 15:50 | 52.97245 | 10.60168 | 33883 ft | 406 kts | 208° |
| 2026-05-05 15:50 | 52.92133 | 10.56184 | 33891 ft | 406 kts | 208° |
| 2026-05-05 15:51 | 52.87011 | 10.52208 | 33884 ft | 406 kts | 208° |
| 2026-05-05 15:51 | 52.81866 | 10.48213 | 33885 ft | 406 kts | 208° |
| 2026-05-05 15:52 | 52.76753 | 10.44252 | 33874 ft | 404 kts | 208° |
| 2026-05-05 15:52 | 52.71670 | 10.40328 | 33889 ft | 403 kts | 208° |
| 2026-05-05 15:53 | 52.66588 | 10.36420 | 33870 ft | 403 kts | 208° |
| 2026-05-05 15:53 | 52.61499 | 10.32519 | 33871 ft | 403 kts | 208° |
| 2026-05-05 15:54 | 52.56413 | 10.28631 | 33871 ft | 403 kts | 208° |
| 2026-05-05 15:54 | 52.51335 | 10.24754 | 33871 ft | 402 kts | 208° |
| 2026-05-05 15:55 | 52.46254 | 10.20886 | 33869 ft | 402 kts | 208° |
| 2026-05-05 15:55 | 52.41173 | 10.17033 | 33863 ft | 402 kts | 208° |
| 2026-05-05 15:56 | 52.36094 | 10.13187 | 33858 ft | 402 kts | 208° |
| 2026-05-05 15:56 | 52.31004 | 10.09348 | 33844 ft | 403 kts | 207° |
| 2026-05-05 15:57 | 52.25906 | 10.05506 | 33854 ft | 404 kts | 207° |
| 2026-05-05 15:57 | 52.20806 | 10.01664 | 33847 ft | 404 kts | 207° |
| 2026-05-05 15:58 | 52.15696 | 9.97824 | 33842 ft | 404 kts | 207° |
| 2026-05-05 15:58 | 52.10589 | 9.94002 | 33834 ft | 404 kts | 207° |
| 2026-05-05 15:59 | 52.05481 | 9.90196 | 33826 ft | 404 kts | 206° |
| 2026-05-05 15:59 | 52.00370 | 9.86396 | 33828 ft | 404 kts | 206° |
| 2026-05-05 16:00 | 51.95257 | 9.82596 | 33820 ft | 404 kts | 206° |
| 2026-05-05 16:00 | 51.90154 | 9.78813 | 33830 ft | 404 kts | 206° |
| 2026-05-05 16:01 | 51.85027 | 9.75029 | 33821 ft | 407 kts | 205° |
| 2026-05-05 16:01 | 51.79867 | 9.71244 | 33814 ft | 407 kts | 205° |
| 2026-05-05 16:02 | 51.74706 | 9.67453 | 33808 ft | 407 kts | 205° |
| 2026-05-05 16:02 | 51.69516 | 9.63626 | 33805 ft | 407 kts | 205° |
| 2026-05-05 16:03 | 51.64353 | 9.59842 | 33781 ft | 408 kts | 205° |
| 2026-05-05 16:03 | 51.59167 | 9.56059 | 33790 ft | 409 kts | 205° |
| 2026-05-05 16:04 | 51.53978 | 9.52284 | 33788 ft | 409 kts | 205° |
| 2026-05-05 16:04 | 51.48787 | 9.48527 | 33789 ft | 410 kts | 205° |
| 2026-05-05 16:05 | 51.43596 | 9.44757 | 33788 ft | 409 kts | 205° |
| 2026-05-05 16:05 | 51.38416 | 9.41017 | 33781 ft | 408 kts | 204° |
| 2026-05-05 16:06 | 51.33231 | 9.37291 | 33778 ft | 408 kts | 204° |
| 2026-05-05 16:06 | 51.27924 | 9.34103 | 33779 ft | 409 kts | 193° |
| 2026-05-05 16:07 | 51.22291 | 9.32679 | 33792 ft | 410 kts | 189° |
| 2026-05-05 16:07 | 51.16641 | 9.31353 | 33775 ft | 412 kts | 189° |
| 2026-05-05 16:08 | 51.10970 | 9.29978 | 33788 ft | 412 kts | 189° |
| 2026-05-05 16:08 | 51.05296 | 9.28611 | 33798 ft | 412 kts | 189° |
| 2026-05-05 16:09 | 50.99620 | 9.27253 | 33773 ft | 413 kts | 189° |
| 2026-05-05 16:09 | 50.93899 | 9.25877 | 33777 ft | 414 kts | 189° |
| 2026-05-05 16:10 | 50.88203 | 9.24502 | 33773 ft | 414 kts | 189° |
| 2026-05-05 16:10 | 50.82497 | 9.23139 | 33795 ft | 414 kts | 189° |
| 2026-05-05 16:11 | 50.76796 | 9.21778 | 33751 ft | 414 kts | 189° |
| 2026-05-05 16:12 | 50.65380 | 9.19247 | 33776 ft | 414 kts | 188° |
| 2026-05-05 16:13 | 50.52148 | 9.16503 | 33769 ft | 414 kts | 188° |
| 2026-05-05 16:13 | 50.46444 | 9.15318 | 33773 ft | 413 kts | 187° |
| 2026-05-05 16:14 | 50.35057 | 9.12973 | 33792 ft | 413 kts | 187° |
| 2026-05-05 16:15 | 50.23643 | 9.10646 | 33801 ft | 412 kts | 187° |
| 2026-05-05 16:16 | 50.12283 | 9.08330 | 33797 ft | 411 kts | 187° |
| 2026-05-05 16:17 | 50.03774 | 9.06607 | 33804 ft | 412 kts | 186° |
| 2026-05-05 16:18 | 49.95250 | 9.04881 | 33810 ft | 412 kts | 186° |
| 2026-05-05 16:19 | 49.86719 | 9.03167 | 33815 ft | 412 kts | 186° |
| 2026-05-05 16:19 | 49.78170 | 9.01448 | 33803 ft | 414 kts | 186° |
| 2026-05-05 16:20 | 49.66724 | 8.99149 | 33823 ft | 414 kts | 186° |
| 2026-05-05 16:22 | 49.52461 | 8.95311 | 33818 ft | 418 kts | 188° |
| 2026-05-05 16:23 | 49.41008 | 8.92171 | 33813 ft | 418 kts | 188° |
| 2026-05-05 16:23 | 49.32303 | 8.89801 | 33820 ft | 423 kts | 188° |
| 2026-05-05 16:24 | 49.26507 | 8.88225 | 33817 ft | 423 kts | 188° |
| 2026-05-05 16:25 | 49.17813 | 8.85866 | 33822 ft | 423 kts | 188° |
| 2026-05-05 16:25 | 49.09063 | 8.83475 | 33831 ft | 427 kts | 188° |
| 2026-05-05 16:26 | 48.97383 | 8.80313 | 33810 ft | 425 kts | 188° |
| 2026-05-05 16:27 | 48.91542 | 8.78735 | 33821 ft | 427 kts | 188° |
| 2026-05-05 16:27 | 48.85690 | 8.77156 | 33814 ft | 427 kts | 188° |
| 2026-05-05 16:28 | 48.79848 | 8.75594 | 33821 ft | 426 kts | 188° |
| 2026-05-05 16:28 | 48.74008 | 8.74021 | 33835 ft | 427 kts | 189° |
| 2026-05-05 16:29 | 48.68130 | 8.72453 | 33807 ft | 429 kts | 189° |
| 2026-05-05 16:29 | 48.62251 | 8.70884 | 33823 ft | 429 kts | 189° |
| 2026-05-05 16:30 | 48.56372 | 8.69325 | 33823 ft | 429 kts | 189° |
| 2026-05-05 16:30 | 48.50493 | 8.67759 | 33818 ft | 429 kts | 189° |
| 2026-05-05 16:31 | 48.44610 | 8.66203 | 33827 ft | 429 kts | 189° |
| 2026-05-05 16:31 | 48.38751 | 8.64650 | 33534 ft | 423 kts | 189° |
| 2026-05-05 16:32 | 48.35869 | 8.63806 | 32433 ft | 423 kts | 191° |
| 2026-05-05 16:32 | 48.32942 | 8.62917 | 30865 ft | 435 kts | 191° |
| 2026-05-05 16:32 | 48.29948 | 8.62010 | 29324 ft | 442 kts | 191° |
| 2026-05-05 16:32 | 48.26910 | 8.61095 | 27637 ft | 447 kts | 191° |
| 2026-05-05 16:33 | 48.23859 | 8.60181 | 25979 ft | 452 kts | 191° |
| 2026-05-05 16:33 | 48.20689 | 8.59227 | 24430 ft | 461 kts | 191° |
| 2026-05-05 16:33 | 48.17528 | 8.58276 | 23247 ft | 464 kts | 191° |
| 2026-05-05 16:33 | 48.14389 | 8.57338 | 22370 ft | 456 kts | 191° |
| 2026-05-05 16:34 | 48.11349 | 8.56432 | 21588 ft | 446 kts | 192° |
| 2026-05-05 16:34 | 48.08338 | 8.55537 | 20852 ft | 437 kts | 192° |
| 2026-05-05 16:34 | 48.05332 | 8.54642 | 20181 ft | 432 kts | 192° |
| 2026-05-05 16:34 | 48.02390 | 8.53772 | 19520 ft | 430 kts | 192° |
| 2026-05-05 16:35 | 47.99462 | 8.52903 | 18886 ft | 428 kts | 192° |
| 2026-05-05 16:35 | 47.96549 | 8.52061 | 18274 ft | 425 kts | 191° |
| 2026-05-05 16:35 | 47.93616 | 8.51767 | 17613 ft | 421 kts | 179° |
| 2026-05-05 16:35 | 47.90724 | 8.52373 | 16997 ft | 420 kts | 171° |
| 2026-05-05 16:36 | 47.87872 | 8.53303 | 16384 ft | 420 kts | 170° |
| 2026-05-05 16:36 | 47.85022 | 8.54249 | 15784 ft | 417 kts | 171° |
| 2026-05-05 16:36 | 47.82205 | 8.55149 | 15193 ft | 411 kts | 171° |
| 2026-05-05 16:36 | 47.79415 | 8.56025 | 14647 ft | 410 kts | 171° |
| 2026-05-05 16:37 | 47.76640 | 8.56892 | 14089 ft | 404 kts | 171° |
| 2026-05-05 16:37 | 47.73888 | 8.57750 | 13542 ft | 404 kts | 171° |
| 2026-05-05 16:37 | 47.71161 | 8.58628 | 12967 ft | 399 kts | 169° |
| 2026-05-05 16:37 | 47.68560 | 8.60078 | 12464 ft | 400 kts | 156° |
| 2026-05-05 16:38 | 47.66284 | 8.62467 | 11933 ft | 406 kts | 140° |
| 2026-05-05 16:38 | 47.64437 | 8.65589 | 11642 ft | 397 kts | 132° |
| 2026-05-05 16:38 | 47.62756 | 8.68757 | 11435 ft | 384 kts | 131° |
| 2026-05-05 16:38 | 47.61130 | 8.71801 | 11250 ft | 371 kts | 132° |
| 2026-05-05 16:39 | 47.59545 | 8.74743 | 11077 ft | 358 kts | 132° |
| 2026-05-05 16:39 | 47.58017 | 8.77561 | 10899 ft | 345 kts | 133° |
| 2026-05-05 16:39 | 47.56539 | 8.80298 | 10726 ft | 333 kts | 130° |
| 2026-05-05 16:39 | 47.55476 | 8.83280 | 10518 ft | 327 kts | 109° |
| 2026-05-05 16:40 | 47.55110 | 8.86544 | 10360 ft | 316 kts | 98° |
| 2026-05-05 16:40 | 47.54914 | 8.89723 | 10190 ft | 305 kts | 98° |
| 2026-05-05 16:40 | 47.54726 | 8.92797 | 10028 ft | 293 kts | 98° |
| 2026-05-05 16:40 | 47.54531 | 8.95741 | 9782 ft | 285 kts | 99° |
| 2026-05-05 16:41 | 47.54328 | 8.98643 | 9339 ft | 283 kts | 99° |
| 2026-05-05 16:41 | 47.54033 | 9.01499 | 8897 ft | 277 kts | 110° |
| 2026-05-05 16:41 | 47.53171 | 9.03923 | 8643 ft | 258 kts | 136° |
| 2026-05-05 16:41 | 47.51825 | 9.05511 | 8444 ft | 239 kts | 160° |
| 2026-05-05 16:42 | 47.50273 | 9.06026 | 8156 ft | 224 kts | 185° |
| 2026-05-05 16:42 | 47.48765 | 9.05816 | 7948 ft | 214 kts | 190° |
| 2026-05-05 16:42 | 47.47321 | 9.05533 | 7678 ft | 204 kts | 190° |
| 2026-05-05 16:42 | 47.45913 | 9.05265 | 7254 ft | 208 kts | 190° |
| 2026-05-05 16:43 | 47.44458 | 9.05012 | 6999 ft | 211 kts | 189° |
| 2026-05-05 16:43 | 47.43059 | 9.04403 | 6934 ft | 212 kts | 214° |
| 2026-05-05 16:43 | 47.42190 | 9.02694 | 6862 ft | 212 kts | 250° |
| 2026-05-05 16:43 | 47.42141 | 9.00528 | 6709 ft | 214 kts | 275° |
| 2026-05-05 16:44 | 47.42424 | 8.98371 | 6600 ft | 215 kts | 280° |
| 2026-05-05 16:44 | 47.42722 | 8.96218 | 6477 ft | 214 kts | 278° |
| 2026-05-05 16:44 | 47.42970 | 8.94076 | 6369 ft | 205 kts | 277° |
| 2026-05-05 16:44 | 47.43165 | 8.92056 | 6232 ft | 192 kts | 275° |
| 2026-05-05 16:45 | 47.43313 | 8.90128 | 6101 ft | 188 kts | 274° |
| 2026-05-05 16:45 | 47.43450 | 8.88204 | 5918 ft | 189 kts | 274° |
| 2026-05-05 16:45 | 47.43542 | 8.86911 | 5773 ft | 188 kts | 274° |
| 2026-05-05 16:45 | 47.43678 | 8.84991 | 5518 ft | 188 kts | 274° |
| 2026-05-05 16:46 | 47.43814 | 8.83072 | 5250 ft | 188 kts | 274° |
| 2026-05-05 16:46 | 47.43950 | 8.81150 | 4979 ft | 188 kts | 274° |
| 2026-05-05 16:46 | 47.44086 | 8.79240 | 4732 ft | 185 kts | 275° |
| 2026-05-05 16:46 | 47.44217 | 8.77396 | 4440 ft | 175 kts | 275° |
| 2026-05-05 16:47 | 47.44340 | 8.75665 | 4241 ft | 162 kts | 273° |
| 2026-05-05 16:47 | 47.44453 | 8.74081 | 3996 ft | 147 kts | 273° |
| 2026-05-05 16:47 | 47.44556 | 8.72630 | 3747 ft | 139 kts | 273° |
| 2026-05-05 16:47 | 47.44656 | 8.71220 | 3571 ft | 138 kts | 273° |
| 2026-05-05 16:48 | 47.44755 | 8.69817 | 3354 ft | 137 kts | 273° |
| 2026-05-05 16:48 | 47.44854 | 8.68413 | 3160 ft | 139 kts | 272° |
| 2026-05-05 16:48 | 47.44956 | 8.66991 | 2969 ft | 139 kts | 272° |
| 2026-05-05 16:48 | 47.45056 | 8.65579 | 2753 ft | 140 kts | 274° |
| 2026-05-05 16:49 | 47.45158 | 8.64144 | 2560 ft | 139 kts | 274° |
| 2026-05-05 16:49 | 47.45259 | 8.62738 | 2346 ft | 136 kts | 275° |
| 2026-05-05 16:49 | 47.45357 | 8.61335 | 2155 ft | 139 kts | 274° |
| 2026-05-05 16:49 | 47.45450 | 8.59920 | 1875 ft | 138 kts | 275° |
| 2026-05-05 16:50 | 47.45563 | 8.58507 | 1695 ft | 139 kts | 275° |
| 2026-05-05 16:50 | 47.45656 | 8.57109 | 1469 ft | 136 kts | 274° |
| 2026-05-05 16:50 | 47.45744 | 8.55826 | 1406 ft | 106 kts | 277° |
| 2026-05-05 16:50 | 47.45804 | 8.55013 | 1399 ft | 62 kts | 276° |
| 2026-05-05 16:51 | 47.45831 | 8.54622 | 1410 ft | 20 kts | 267° |
| 2026-05-05 16:51 | 47.45801 | 8.54418 | 1410 ft | 21 kts | 250° |
| 2026-05-05 16:51 | 47.45740 | 8.54232 | 1405 ft | 18 kts | 221° |
| 2026-05-05 16:51 | 47.45624 | 8.54246 | 1399 ft | 19 kts | 122° |
| 2026-05-05 16:52 | 47.45598 | 8.54342 | 1402 ft | 7 kts | 108° |
| 2026-05-05 16:52 | 47.45580 | 8.54423 | 1401 ft | 9 kts | 108° |
| 2026-05-05 16:52 | 47.45557 | 8.54528 | 1401 ft | 13 kts | 108° |
| 2026-05-05 16:52 | 47.45526 | 8.54665 | 1407 ft | 15 kts | 108° |
| 2026-05-05 16:53 | 47.45491 | 8.54822 | 1404 ft | 17 kts | 108° |
| 2026-05-05 16:53 | 47.45452 | 8.54995 | 1409 ft | 19 kts | 109° |
| 2026-05-05 16:53 | 47.45407 | 8.55185 | 1406 ft | 20 kts | 109° |
| 2026-05-05 16:53 | 47.45369 | 8.55312 | 1414 ft | 13 kts | 118° |
| 2026-05-05 16:54 | 47.45323 | 8.55434 | 1409 ft | 14 kts | 120° |
| 2026-05-05 16:54 | 47.45276 | 8.55570 | 1403 ft | 16 kts | 101° |
| 2026-05-05 16:54 | 47.45263 | 8.55740 | 1402 ft | 14 kts | 96° |
| 2026-05-05 16:54 | 47.45265 | 8.55826 | 1402 ft | 8 kts | 36° |
| 2026-05-05 16:55 | 47.45323 | 8.55841 | 1402 ft | 5 kts | 6° |
| 2026-05-05 16:55 | 47.45331 | 8.55842 | 1402 ft | 0 kts | 6° |